^^
Turner Downs-Weather Station Historical Data
 
Daily Summary for November 21, 2019 Units:  English    Metric   Both
Daily Weekly Monthly Yearly Custom
  Current: High: Low: Average:
Temperature: 46.3 °F 57.4 °F 33.9 °F 46 °F
Dew Point: 40.1 °F 41.6 °F 31.3 °F 37.3 °F
Humidity: 79% 94% 47% 74%
Wind Speed: 0mph 6mph 0mph 0.5mph
Wind Gust: 0mph 9mph - -
WindCalm - - SSE
Pressure: 30.11 in 30.30 in 30.11 in -
Precipitation: 0.012 in      
Historical Graphs
 
 
Tabular Data for November 21, 2019
Time Temperature Dew Point Pressure Wind Wind Speed Wind Gust Humidity Rainfall Rate (Hourly) solar
00:00 40.6 °F 36.7 °F 30.22 in Calm     86% 0 in WeatherDisplay:10.37 W/m2
00:05 40.4 °F 36.5 °F 30.22 in Calm     86% 0 in WeatherDisplay:10.37 W/m2
00:10 40.4 °F 36.5 °F 30.22 in Calm     86% 0 in WeatherDisplay:10.37 W/m2
00:15 40.3 °F 36.4 °F 30.22 in Calm     86% 0 in WeatherDisplay:10.37 W/m2
00:20 40.1 °F 36.3 °F 30.22 in Calm     86% 0 in WeatherDisplay:10.37 W/m2
00:25 40.1 °F 36.2 °F 30.22 in Calm     86% 0 in WeatherDisplay:10.37 W/m2
00:30 40 °F 36.4 °F 30.22 in Calm     87% 0 in WeatherDisplay:10.37 W/m2
00:35 39.9 °F 36.3 °F 30.22 in Calm     87% 0 in WeatherDisplay:10.37 W/m2
00:40 39.9 °F 36.3 °F 30.22 in Calm     87% 0 in WeatherDisplay:10.37 W/m2
00:45 39.8 °F 36.3 °F 30.22 in Calm     87% 0 in WeatherDisplay:10.37 W/m2
00:50 39.7 °F 36.1 °F 30.22 in Calm     87% 0 in WeatherDisplay:10.37 W/m2
00:55 39.7 °F 36.4 °F 30.22 in Calm     88% 0 in WeatherDisplay:10.37 W/m2
01:00 39.6 °F 36.1 °F 30.22 in Calm     87% 0 in WeatherDisplay:10.37 W/m2
01:05 39.5 °F 36 °F 30.22 in Calm     87% 0 in WeatherDisplay:10.37 W/m2
01:10 39.4 °F 35.8 °F 30.22 in Calm     87% 0 in WeatherDisplay:10.37 W/m2
01:15 39.3 °F 36 °F 30.23 in Calm     88% 0 in WeatherDisplay:10.37 W/m2
01:20 39.2 °F 35.9 °F 30.23 in Calm     88% 0 in WeatherDisplay:10.37 W/m2
01:25 39.1 °F 35.8 °F 30.23 in Calm     88% 0 in WeatherDisplay:10.37 W/m2
01:30 39.1 °F 35.8 °F 30.23 in Calm     88% 0 in WeatherDisplay:10.37 W/m2
01:35 39 °F 35.7 °F 30.23 in Calm     88% 0 in WeatherDisplay:10.37 W/m2
01:40 38.9 °F 35.6 °F 30.23 in Calm     88% 0 in WeatherDisplay:10.37 W/m2
01:45 38.9 °F 35.9 °F 30.23 in Calm     89% 0 in WeatherDisplay:10.37 W/m2
01:50 38.9 °F 35.9 °F 30.23 in Calm     89% 0 in WeatherDisplay:10.37 W/m2
01:55 38.9 °F 35.9 °F 30.23 in Calm     89% 0 in WeatherDisplay:10.37 W/m2
02:00 38.9 °F 36.2 °F 30.23 in Calm     90% 0 in WeatherDisplay:10.37 W/m2
02:05 38.8 °F 35.8 °F 30.23 in Calm     89% 0 in WeatherDisplay:10.37 W/m2
02:10 38.8 °F 35.8 °F 30.23 in Calm     89% 0 in WeatherDisplay:10.37 W/m2
02:15 38.8 °F 35.8 °F 30.23 in Calm     89% 0 in WeatherDisplay:10.37 W/m2
02:20 38.7 °F 35.7 °F 30.23 in Calm     89% 0 in WeatherDisplay:10.37 W/m2
02:25 38.7 °F 35.7 °F 30.23 in Calm     89% 0 in WeatherDisplay:10.37 W/m2
02:30 38.7 °F 35.7 °F 30.23 in Calm     89% 0 in WeatherDisplay:10.37 W/m2
02:35 38.6 °F 35.9 °F 30.23 in Calm     90% 0 in WeatherDisplay:10.37 W/m2
02:40 38.4 °F 35.4 °F 30.24 in Calm     89% 0 in WeatherDisplay:10.37 W/m2
02:45 38.3 °F 35.4 °F 30.24 in Calm     89% 0 in WeatherDisplay:10.37 W/m2
02:50 38.1 °F 35.2 °F 30.24 in Calm     89% 0 in WeatherDisplay:10.37 W/m2
02:55 38 °F 35 °F 30.25 in Calm     89% 0 in WeatherDisplay:10.37 W/m2
03:00 37.8 °F 34.9 °F 30.25 in Calm     89% 0 in WeatherDisplay:10.37 W/m2
03:05 37.7 °F 34.8 °F 30.25 in Calm     89% 0 in WeatherDisplay:10.37 W/m2
03:10 37.7 °F 34.8 °F 30.24 in Calm     89% 0 in WeatherDisplay:10.37 W/m2
03:15 37.6 °F 34.7 °F 30.24 in Calm     89% 0 in WeatherDisplay:10.37 W/m2
03:20 37.5 °F 34.6 °F 30.24 in Calm     89% 0 in WeatherDisplay:10.37 W/m2
03:25 37.4 °F 34.5 °F 30.24 in Calm     89% 0 in WeatherDisplay:10.37 W/m2
03:30 37.3 °F 34.4 °F 30.24 in Calm     89% 0 in WeatherDisplay:10.37 W/m2
03:35 37.2 °F 34.3 °F 30.24 in Calm     89% 0 in WeatherDisplay:10.37 W/m2
03:40 37.1 °F 34.2 °F 30.24 in Calm     89% 0 in WeatherDisplay:10.37 W/m2
03:45 37 °F 33.8 °F 30.24 in Calm     88% 0 in WeatherDisplay:10.37 W/m2
03:50 37 °F 34.1 °F 30.24 in Calm     89% 0 in WeatherDisplay:10.37 W/m2
03:55 36.9 °F 34.2 °F 30.25 in Calm     90% 0 in WeatherDisplay:10.37 W/m2
04:00 36.8 °F 34.1 °F 30.25 in Calm     90% 0 in WeatherDisplay:10.37 W/m2
04:05 36.7 °F 34 °F 30.25 in Calm     90% 0 in WeatherDisplay:10.37 W/m2
04:10 36.6 °F 33.9 °F 30.25 in Calm     90% 0 in WeatherDisplay:10.37 W/m2
04:15 36.5 °F 33.6 °F 30.25 in Calm     89% 0 in WeatherDisplay:10.37 W/m2
04:20 36.5 °F 33.5 °F 30.25 in Calm     89% 0 in WeatherDisplay:10.37 W/m2
04:25 36.2 °F 33 °F 30.25 in Calm     88% 0 in WeatherDisplay:10.37 W/m2
04:30 36.2 °F 33.3 °F 30.25 in Calm     89% 0 in WeatherDisplay:10.37 W/m2
04:35 36.1 °F 33.2 °F 30.25 in Calm     89% 0 in WeatherDisplay:10.37 W/m2
04:40 36.1 °F 33.2 °F 30.24 in Calm     89% 0 in WeatherDisplay:10.37 W/m2
04:45 35.9 °F 32.9 °F 30.24 in Calm     89% 0 in WeatherDisplay:10.37 W/m2
04:50 35.8 °F 32.9 °F 30.24 in Calm     89% 0 in WeatherDisplay:10.37 W/m2
04:55 35.9 °F 33.3 °F 30.24 in Calm     90% 0 in WeatherDisplay:10.37 W/m2
05:00 35.9 °F 33.3 °F 30.25 in Calm     90% 0 in WeatherDisplay:10.37 W/m2
05:05 35.9 °F 33.5 °F 30.25 in Calm     91% 0 in WeatherDisplay:10.37 W/m2
05:10 35.8 °F 33.2 °F 30.25 in Calm     90% 0 in WeatherDisplay:10.37 W/m2
05:15 35.8 °F 33.4 °F 30.25 in Calm     91% 0 in WeatherDisplay:10.37 W/m2
05:20 35.7 °F 33.3 °F 30.26 in Calm     91% 0 in WeatherDisplay:10.37 W/m2
05:25 35.7 °F 33 °F 30.26 in Calm     90% 0 in WeatherDisplay:10.37 W/m2
05:30 35.6 °F 33 °F 30.26 in Calm     90% 0 in WeatherDisplay:10.37 W/m2
05:35 35.5 °F 32.9 °F 30.26 in Calm     90% 0 in WeatherDisplay:10.37 W/m2
05:40 35.5 °F 32.9 °F 30.26 in Calm     90% 0 in WeatherDisplay:10.37 W/m2
05:45 35.4 °F 32.8 °F 30.26 in Calm     90% 0 in WeatherDisplay:10.37 W/m2
05:50 35.4 °F 32.8 °F 30.25 in Calm     90% 0 in WeatherDisplay:10.37 W/m2
05:55 35.3 °F 32.7 °F 30.25 in Calm     90% 0 in WeatherDisplay:10.37 W/m2
06:00 35.2 °F 32.6 °F 30.25 in Calm     90% 0 in WeatherDisplay:10.37 W/m2
06:05 35.2 °F 32.6 °F 30.26 in Calm     90% 0 in WeatherDisplay:10.37 W/m2
06:10 35.1 °F 32.5 °F 30.26 in Calm     90% 0 in WeatherDisplay:10.37 W/m2
06:15 35 °F 32.4 °F 30.26 in Calm     90% 0 in WeatherDisplay:10.37 W/m2
06:20 34.9 °F 32 °F 30.26 in Calm     89% 0 in WeatherDisplay:10.37 W/m2
06:25 34.8 °F 31.9 °F 30.26 in Calm     89% 0 in WeatherDisplay:10.37 W/m2
06:30 34.7 °F 32.1 °F 30.26 in Calm     90% 0 in WeatherDisplay:10.37 W/m2
06:35 34.7 °F 32.1 °F 30.26 in Calm     90% 0 in WeatherDisplay:10.37 W/m2
06:40 34.7 °F 32.1 °F 30.26 in Calm     90% 0 in WeatherDisplay:10.37 W/m2
06:45 34.7 °F 32.4 °F 30.26 in Calm     91% 0 in WeatherDisplay:10.37 W/m2
06:50 34.7 °F 32.3 °F 30.26 in Calm     91% 0 in WeatherDisplay:10.37 W/m2
06:55 34.6 °F 32.2 °F 30.27 in Calm     91% 0 in WeatherDisplay:10.37 W/m2
07:00 34.5 °F 32.2 °F 30.26 in Calm     91% 0 in WeatherDisplay:10.37 W/m2
07:05 34.3 °F 31.7 °F 30.27 in Calm     90% 0 in WeatherDisplay:10.37 W/m2
07:10 34.1 °F 31.5 °F 30.27 in Calm     90% 0 in WeatherDisplay:10.37 W/m2
07:15 34 °F 31.4 °F 30.27 in Calm     90% 0 in WeatherDisplay:10.37 W/m2
07:20 33.9 °F 31.3 °F 30.27 in Calm     90% 0 in WeatherDisplay:10.37 W/m2
07:25 33.9 °F 31.6 °F 30.28 in Calm     91% 0 in WeatherDisplay:10.37 W/m2
07:30 34 °F 31.6 °F 30.28 in Calm     91% 0 in WeatherDisplay:10.37 W/m2
07:35 34 °F 31.7 °F 30.28 in Calm     91% 0 in WeatherDisplay:10.37 W/m2
07:40 34.2 °F 31.8 °F 30.28 in Calm     91% 0 in WeatherDisplay:10.37 W/m2
07:45 34.2 °F 32.1 °F 30.28 in Calm     92% 0 in WeatherDisplay:10.37 W/m2
07:50 34.4 °F 32.3 °F 30.28 in Calm     92% 0 in WeatherDisplay:10.37 W/m2
07:55 34.5 °F 32.4 °F 30.28 in Calm     92% 0 in WeatherDisplay:10.37 W/m2
08:00 34.6 °F 32.5 °F 30.28 in Calm     92% 0 in WeatherDisplay:10.37 W/m2
08:05 34.6 °F 32.5 °F 30.29 in Calm     92% 0 in WeatherDisplay:10.37 W/m2
08:10 34.8 °F 32.7 °F 30.29 in Calm     92% 0 in WeatherDisplay:10.37 W/m2
08:15 35 °F 33.2 °F 30.29 in Calm     93% 0 in WeatherDisplay:10.37 W/m2
08:20 35.1 °F 33 °F 30.29 in Calm     92% 0 in WeatherDisplay:10.37 W/m2
08:25 35.3 °F 33.5 °F 30.29 in Calm     93% 0 in WeatherDisplay:10.37 W/m2
08:30 35.5 °F 33.7 °F 30.29 in Calm     93% 0 in WeatherDisplay:10.37 W/m2
08:35 35.8 °F 34 °F 30.29 in Calm     93% 0 in WeatherDisplay:10.37 W/m2
08:40 36.2 °F 34.6 °F 30.29 in Calm     94% 0 in WeatherDisplay:10.37 W/m2
08:45 37.7 °F 36.1 °F 30.29 in Calm     94% 0 in WeatherDisplay:10.37 W/m2
08:50 39.7 °F 37.3 °F 30.30 in Calm     91% 0 in WeatherDisplay:10.37 W/m2
08:55 40.2 °F 37.2 °F 30.29 in Calm     89% 0 in WeatherDisplay:10.37 W/m2
09:00 40.1 °F 37.2 °F 30.29 in Calm     89% 0 in WeatherDisplay:10.37 W/m2
09:05 41.5 °F 38.5 °F 30.29 in Calm     89% 0 in WeatherDisplay:10.37 W/m2
09:10 43.1 °F 38.9 °F 30.29 in Calm     85% 0 in WeatherDisplay:10.37 W/m2
09:15 44.1 °F 39.2 °F 30.29 in Calm     83% 0 in WeatherDisplay:10.37 W/m2
09:20 45.7 °F 38.6 °F 30.29 in ENE 3 mph 5 mph 76% 0 in WeatherDisplay:10.37 W/m2
09:25 46.7 °F 37.4 °F 30.29 in ENE 5 mph 6 mph 70% 0 in WeatherDisplay:10.37 W/m2
09:30 47.3 °F 37.6 °F 30.29 in Calm   3 mph 69% 0 in WeatherDisplay:10.37 W/m2
09:35 47.6 °F 37.6 °F 30.29 in ENE 3 mph 6 mph 68% 0 in WeatherDisplay:10.37 W/m2
09:40 47.7 °F 36.9 °F 30.29 in ENE 1 mph 8 mph 66% 0 in WeatherDisplay:10.37 W/m2
09:45 47.9 °F 36.3 °F 30.29 in East 2 mph 3 mph 64% 0 in WeatherDisplay:10.37 W/m2
09:50 48 °F 36.4 °F 30.29 in East 2 mph 5 mph 64% 0 in WeatherDisplay:10.37 W/m2
09:55 48.5 °F 36.9 °F 30.30 in East 1 mph 3 mph 64% 0 in WeatherDisplay:10.37 W/m2
10:00 48.9 °F 36.4 °F 30.29 in SE 2 mph 5 mph 62% 0 in WeatherDisplay:10.37 W/m2
10:05 49 °F 36.5 °F 30.29 in SE 2 mph 3 mph 62% 0 in WeatherDisplay:10.37 W/m2
10:10 49.8 °F 37.7 °F 30.29 in East 3 mph 3 mph 63% 0 in WeatherDisplay:10.37 W/m2
10:15 49.5 °F 35.8 °F 30.29 in East 1 mph 3 mph 59% 0 in WeatherDisplay:10.37 W/m2
10:20 50.6 °F 37.2 °F 30.29 in ENE 2 mph 3 mph 60% 0 in WeatherDisplay:10.37 W/m2
10:25 50.6 °F 35 °F 30.29 in NE 1 mph 3 mph 55% 0 in WeatherDisplay:10.37 W/m2
10:30 51.5 °F 38.4 °F 30.29 in ENE 1 mph 5 mph 61% 0 in WeatherDisplay:10.37 W/m2
10:35 51 °F 36.3 °F 30.29 in ENE 5 mph 6 mph 57% 0 in WeatherDisplay:10.37 W/m2
10:40 50.7 °F 36.5 °F 30.28 in ENE 2 mph 6 mph 58% 0 in WeatherDisplay:10.37 W/m2
10:45 51.7 °F 38.2 °F 30.28 in ENE 5 mph 5 mph 60% 0 in WeatherDisplay:10.37 W/m2
10:50 51 °F 36.3 °F 30.28 in ENE 2 mph 5 mph 57% 0 in WeatherDisplay:10.37 W/m2
10:55 51.3 °F 35.7 °F 30.28 in Calm   5 mph 55% 0 in WeatherDisplay:10.37 W/m2
11:00 52 °F 36.3 °F 30.29 in NE 3 mph 5 mph 55% 0 in WeatherDisplay:10.37 W/m2
11:05 52.9 °F 38.6 °F 30.28 in NE 1 mph 5 mph 58% 0 in WeatherDisplay:10.37 W/m2
11:10 53 °F 37.8 °F 30.28 in Calm   2 mph 56% 0 in WeatherDisplay:10.37 W/m2
11:15 54.3 °F 38 °F 30.27 in West 2 mph 3 mph 54% 0 in WeatherDisplay:10.37 W/m2
11:20 54.7 °F 37.9 °F 30.27 in SSW 3 mph 3 mph 53% 0 in WeatherDisplay:10.37 W/m2
11:25 54.2 °F 37.9 °F 30.26 in SE 2 mph 5 mph 54% 0 in WeatherDisplay:10.37 W/m2
11:30 54.1 °F 38.3 °F 30.26 in ESE 1 mph 2 mph 55% 0 in WeatherDisplay:10.37 W/m2
11:35 54.2 °F 38.8 °F 30.25 in ESE 2 mph 5 mph 56% 0 in WeatherDisplay:10.37 W/m2
11:40 54 °F 38.2 °F 30.25 in ESE 2 mph 9 mph 55% 0 in WeatherDisplay:10.37 W/m2
11:45 54.4 °F 39 °F 30.25 in Calm   3 mph 56% 0 in WeatherDisplay:10.37 W/m2
11:50 54.6 °F 38.7 °F 30.25 in East 6 mph 6 mph 55% 0 in WeatherDisplay:10.37 W/m2
11:55 55 °F 39.1 °F 30.25 in NE 2 mph 5 mph 55% 0 in WeatherDisplay:10.37 W/m2
12:00 54.6 °F 37.8 °F 30.24 in South 2 mph 5 mph 53% 0 in WeatherDisplay:10.37 W/m2
12:05 54.4 °F 38.5 °F 30.24 in ESE 1 mph 5 mph 55% 0 in WeatherDisplay:10.37 W/m2
12:10 54.8 °F 38.4 °F 30.24 in ENE 2 mph 6 mph 54% 0 in WeatherDisplay:10.37 W/m2
12:15 55.2 °F 38.8 °F 30.24 in WSW 2 mph 3 mph 54% 0 in WeatherDisplay:10.37 W/m2
12:20 55.3 °F 36.9 °F 30.24 in Calm   3 mph 50% 0 in WeatherDisplay:10.37 W/m2
12:25 54.9 °F 38.1 °F 30.23 in SSE 1 mph 2 mph 53% 0 in WeatherDisplay:10.37 W/m2
12:30 56.5 °F 39.1 °F 30.23 in WSW 3 mph 5 mph 52% 0 in WeatherDisplay:10.37 W/m2
12:35 55.1 °F 37.3 °F 30.23 in WNW 1 mph 5 mph 51% 0 in WeatherDisplay:10.37 W/m2
12:40 55.4 °F 38.1 °F 30.22 in West 2 mph 5 mph 52% 0 in WeatherDisplay:10.37 W/m2
12:45 56.1 °F 39.2 °F 30.22 in SSW 2 mph 5 mph 53% 0 in WeatherDisplay:10.37 W/m2
12:50 56.2 °F 37.8 °F 30.21 in SSW 1 mph 5 mph 50% 0 in WeatherDisplay:10.37 W/m2
12:55 55.7 °F 37.9 °F 30.21 in South 2 mph 3 mph 51% 0 in WeatherDisplay:10.37 W/m2
13:00 55.8 °F 36.9 °F 30.21 in South 1 mph 3 mph 49% 0 in WeatherDisplay:10.37 W/m2
13:05 56.1 °F 37.7 °F 30.21 in South 2 mph 3 mph 50% 0 in WeatherDisplay:10.37 W/m2
13:10 56.7 °F 37.2 °F 30.20 in South 2 mph 3 mph 48% 0 in WeatherDisplay:10.37 W/m2
13:15 56.5 °F 37 °F 30.20 in South 2 mph 3 mph 48% 0 in WeatherDisplay:10.37 W/m2
13:20 56.6 °F 38.7 °F 30.20 in SE 2 mph 5 mph 51% 0 in WeatherDisplay:10.37 W/m2
13:25 56.5 °F 38.1 °F 30.20 in SE 2 mph 3 mph 50% 0 in WeatherDisplay:10.37 W/m2
13:30 56.3 °F 37.4 °F 30.19 in SE 1 mph 5 mph 49% 0 in WeatherDisplay:10.37 W/m2
13:35 56.7 °F 37.7 °F 30.19 in SE 3 mph 3 mph 49% 0 in WeatherDisplay:10.37 W/m2
13:40 56.5 °F 38.6 °F 30.19 in SE 2 mph 5 mph 51% 0 in WeatherDisplay:10.37 W/m2
13:45 57.2 °F 38.7 °F 30.19 in SE 1 mph 3 mph 50% 0 in WeatherDisplay:10.37 W/m2
13:50 57.1 °F 38.1 °F 30.19 in SSE 1 mph 3 mph 49% 0 in WeatherDisplay:10.37 W/m2
13:55 56.8 °F 38.8 °F 30.18 in SW 1 mph 5 mph 51% 0 in WeatherDisplay:10.37 W/m2
14:00 56.7 °F 36.7 °F 30.18 in SSW 2 mph 5 mph 47% 0 in WeatherDisplay:10.37 W/m2
14:05 56.8 °F 38.3 °F 30.18 in SW 5 mph 5 mph 50% 0 in WeatherDisplay:10.37 W/m2
14:10 57.4 °F 39.4 °F 30.18 in SW 3 mph 6 mph 51% 0 in WeatherDisplay:10.37 W/m2
14:15 57.4 °F 37.8 °F 30.18 in WSW 2 mph 6 mph 48% 0 in WeatherDisplay:10.37 W/m2
14:20 57 °F 37.5 °F 30.18 in West 2 mph 5 mph 48% 0 in WeatherDisplay:10.37 W/m2
14:25 57.4 °F 38.9 °F 30.18 in WNW 5 mph 5 mph 50% 0 in WeatherDisplay:10.37 W/m2
14:30 57 °F 37 °F 30.19 in Calm   5 mph 47% 0 in WeatherDisplay:10.37 W/m2
14:35 57.1 °F 38.1 °F 30.19 in West 5 mph 5 mph 49% 0 in WeatherDisplay:10.37 W/m2
14:40 57.1 °F 38.1 °F 30.19 in Calm   5 mph 49% 0 in WeatherDisplay:10.37 W/m2
14:45 56.9 °F 37.4 °F 30.19 in WSW 1 mph 6 mph 48% 0 in WeatherDisplay:10.37 W/m2
14:50 57.2 °F 38.2 °F 30.19 in SW 5 mph 5 mph 49% 0 in WeatherDisplay:10.37 W/m2
14:55 57.3 °F 37.8 °F 30.18 in SW 1 mph 3 mph 48% 0 in WeatherDisplay:10.37 W/m2
15:00 57.2 °F 37.7 °F 30.18 in WNW 1 mph 3 mph 48% 0 in WeatherDisplay:10.37 W/m2
15:05 57.3 °F 38.8 °F 30.18 in Calm     50% 0 in WeatherDisplay:10.37 W/m2
15:10 57.2 °F 38.7 °F 30.18 in Calm     50% 0 in WeatherDisplay:10.37 W/m2
15:15 57.2 °F 38.7 °F 30.18 in Calm     50% 0 in WeatherDisplay:10.37 W/m2
15:20 57.2 °F 39.2 °F 30.18 in Calm     51% 0 in WeatherDisplay:10.37 W/m2
15:25 56.9 °F 39 °F 30.18 in Calm     51% 0 in WeatherDisplay:10.37 W/m2
15:30 56.9 °F 39.9 °F 30.18 in Calm     53% 0 in WeatherDisplay:10.37 W/m2
15:35 56.9 °F 39.9 °F 30.18 in Calm     53% 0 in WeatherDisplay:10.37 W/m2
15:40 57.2 °F 39.2 °F 30.18 in Calm     51% 0 in WeatherDisplay:10.37 W/m2
15:45 57.1 °F 39.6 °F 30.18 in Calm     52% 0 in WeatherDisplay:10.37 W/m2
15:50 56.6 °F 40.7 °F 30.18 in Calm     55% 0 in WeatherDisplay:10.37 W/m2
15:55 56.5 °F 40 °F 30.18 in Calm     54% 0 in WeatherDisplay:10.37 W/m2
16:00 56.4 °F 39.9 °F 30.18 in Calm     54% 0 in WeatherDisplay:10.37 W/m2
16:05 56.2 °F 40.2 °F 30.17 in Calm     55% 0 in WeatherDisplay:10.37 W/m2
16:10 56 °F 39.6 °F 30.18 in Calm     54% 0 in WeatherDisplay:10.37 W/m2
16:15 56 °F 40.5 °F 30.18 in Calm     56% 0 in WeatherDisplay:10.37 W/m2
16:20 55.8 °F 40.3 °F 30.18 in Calm     56% 0 in WeatherDisplay:10.37 W/m2
16:25 55.7 °F 40.7 °F 30.17 in Calm     57% 0 in WeatherDisplay:10.37 W/m2
16:30 55.5 °F 40 °F 30.17 in Calm     56% 0 in WeatherDisplay:10.37 W/m2
16:35 55.4 °F 39.9 °F 30.17 in Calm     56% 0 in WeatherDisplay:10.37 W/m2
16:40 55 °F 40.5 °F 30.17 in South 1 mph 2 mph 58% 0 in WeatherDisplay:10.37 W/m2
16:45 54.7 °F 39.7 °F 30.16 in Calm   2 mph 57% 0 in WeatherDisplay:10.37 W/m2
16:50 54.6 °F 40.5 °F 30.16 in Calm   2 mph 59% 0 in WeatherDisplay:10.37 W/m2
16:55 54.4 °F 39.9 °F 30.16 in Calm     58% 0 in WeatherDisplay:10.37 W/m2
17:00 54.3 °F 40.3 °F 30.17 in Calm     59% 0 in WeatherDisplay:10.37 W/m2
17:05 53.9 °F 40.3 °F 30.17 in Calm     60% 0 in WeatherDisplay:10.37 W/m2
17:10 53.7 °F 40.6 °F 30.17 in Calm     61% 0 in WeatherDisplay:10.37 W/m2
17:15 53.7 °F 39.7 °F 30.17 in Calm     59% 0 in WeatherDisplay:10.37 W/m2
17:20 53.5 °F 40.8 °F 30.17 in Calm     62% 0 in WeatherDisplay:10.37 W/m2
17:25 53.5 °F 40.8 °F 30.17 in Calm     62% 0 in WeatherDisplay:10.37 W/m2
17:30 53.5 °F 39.9 °F 30.17 in Calm     60% 0 in WeatherDisplay:10.37 W/m2
17:35 53 °F 40.7 °F 30.17 in Calm     63% 0 in WeatherDisplay:10.37 W/m2
17:40 52.6 °F 40.4 °F 30.16 in Calm     63% 0 in WeatherDisplay:10.37 W/m2
17:45 52.4 °F 39.8 °F 30.16 in Calm     62% 0 in WeatherDisplay:10.37 W/m2
17:50 52.1 °F 40.3 °F 30.16 in Calm     64% 0 in WeatherDisplay:10.37 W/m2
17:55 51.5 °F 40.9 °F 30.17 in Calm     67% 0 in WeatherDisplay:10.37 W/m2
18:00 50.9 °F 40.7 °F 30.17 in Calm     68% 0 in WeatherDisplay:10.37 W/m2
18:05 50.8 °F 41 °F 30.17 in Calm     69% 0 in WeatherDisplay:10.37 W/m2
18:10 50.4 °F 41 °F 30.18 in Calm     70% 0 in WeatherDisplay:10.37 W/m2
18:15 50.2 °F 40.8 °F 30.17 in Calm     70% 0 in WeatherDisplay:10.37 W/m2
18:20 50.3 °F 41.6 °F 30.17 in Calm     72% 0 in WeatherDisplay:10.37 W/m2
18:25 50.1 °F 41.4 °F 30.17 in Calm     72% 0 in WeatherDisplay:10.37 W/m2
18:30 49.9 °F 40.9 °F 30.18 in Calm     71% 0 in WeatherDisplay:10.37 W/m2
18:35 49.7 °F 40.7 °F 30.18 in Calm     71% 0 in WeatherDisplay:10.37 W/m2
18:40 49.5 °F 40.8 °F 30.17 in Calm     72% 0 in WeatherDisplay:10.37 W/m2
18:45 49.1 °F 40.8 °F 30.17 in Calm     73% 0 in WeatherDisplay:10.37 W/m2
18:50 48.8 °F 40.2 °F 30.17 in Calm     72% 0 in WeatherDisplay:10.37 W/m2
18:55 48.4 °F 40.2 °F 30.17 in Calm     73% 0 in WeatherDisplay:10.37 W/m2
19:00 48.4 °F 40.5 °F 30.17 in Calm     74% 0 in WeatherDisplay:10.37 W/m2
19:05 48.5 °F 40.6 °F 30.17 in Calm     74% 0 in WeatherDisplay:10.37 W/m2
19:10 48.3 °F 40.4 °F 30.16 in Calm     74% 0 in WeatherDisplay:10.37 W/m2
19:15 48.3 °F 41.1 °F 30.16 in Calm     76% 0 in WeatherDisplay:10.37 W/m2
19:20 48.1 °F 41.2 °F 30.17 in Calm     77% 0 in WeatherDisplay:10.37 W/m2
19:25 48.1 °F 40.9 °F 30.17 in Calm     76% 0 in WeatherDisplay:10.37 W/m2
19:30 48.1 °F 40.9 °F 30.17 in Calm     76% 0 in WeatherDisplay:10.37 W/m2
19:35 48.1 °F 40.9 °F 30.17 in Calm     76% 0 in WeatherDisplay:10.37 W/m2
19:40 48.1 °F 40.9 °F 30.17 in Calm     76% 0 in WeatherDisplay:10.37 W/m2
19:45 48.1 °F 40.5 °F 30.17 in Calm     75% 0 in WeatherDisplay:10.37 W/m2
19:50 48.1 °F 40.5 °F 30.17 in Calm     75% 0 in WeatherDisplay:10.37 W/m2
19:55 48.1 °F 40.9 °F 30.17 in Calm     76% 0 in WeatherDisplay:10.37 W/m2
20:00 48.1 °F 40.5 °F 30.17 in Calm     75% 0 in WeatherDisplay:10.37 W/m2
20:05 48.1 °F 40.5 °F 30.17 in Calm     75% 0 in WeatherDisplay:10.37 W/m2
20:10 48 °F 41.2 °F 30.17 in Calm     77% 0 in WeatherDisplay:10.37 W/m2
20:15 48 °F 40.7 °F 30.16 in Calm     76% 0 in WeatherDisplay:10.37 W/m2
20:20 47.9 °F 40.4 °F 30.16 in Calm     75% 0 in WeatherDisplay:10.37 W/m2
20:25 47.9 °F 41 °F 30.16 in Calm     77% 0 in WeatherDisplay:10.37 W/m2
20:30 47.8 °F 40.3 °F 30.16 in Calm     75% 0 in WeatherDisplay:10.37 W/m2
20:35 47.8 °F 40.3 °F 30.16 in Calm     75% 0 in WeatherDisplay:10.37 W/m2
20:40 47.7 °F 40.5 °F 30.16 in Calm     76% 0 in WeatherDisplay:10.37 W/m2
20:47 47.6 °F 39.7 °F 30.15 in Calm     74% 0 in WeatherDisplay:10.37 W/m2
20:50 47.6 °F 39.7 °F 30.15 in Calm     74% 0 in WeatherDisplay:10.37 W/m2
20:55 47.6 °F 40.4 °F 30.16 in Calm     76% 0 in WeatherDisplay:10.37 W/m2
21:00 47.6 °F 40.7 °F 30.15 in Calm     77% 0 in WeatherDisplay:10.37 W/m2
21:05 47.5 °F 40.6 °F 30.16 in Calm     77% 0 in WeatherDisplay:10.37 W/m2
21:10 47.4 °F 40.9 °F 30.16 in Calm     78% 0 in WeatherDisplay:10.37 W/m2
21:15 47.4 °F 40.5 °F 30.15 in Calm     77% 0 in WeatherDisplay:10.37 W/m2
21:20 47.3 °F 40.5 °F 30.15 in Calm     77% 0 in WeatherDisplay:10.37 W/m2
21:25 47.2 °F 40 °F 30.14 in Calm     76% 0 in WeatherDisplay:10.37 W/m2
21:30 47.1 °F 39.9 °F 30.14 in Calm     76% 0 in WeatherDisplay:10.37 W/m2
21:35 47.1 °F 39.9 °F 30.14 in Calm     76% 0 in WeatherDisplay:10.37 W/m2
21:40 47.1 °F 39.9 °F 30.15 in Calm     76% 0 in WeatherDisplay:10.37 W/m2
21:45 47.1 °F 40.3 °F 30.15 in Calm     77% 0 in WeatherDisplay:10.37 W/m2
21:50 47.1 °F 40.2 °F 30.15 in Calm     77% 0 in WeatherDisplay:10.37 W/m2
21:55 47 °F 40.5 °F 30.14 in Calm     78% 0 in WeatherDisplay:10.37 W/m2
22:00 47 °F 40.1 °F 30.14 in Calm     77% 0 in WeatherDisplay:10.37 W/m2
22:05 46.9 °F 39.7 °F 30.14 in Calm     76% 0 in WeatherDisplay:10.37 W/m2
22:10 46.9 °F 40.1 °F 30.14 in Calm     77% 0 in WeatherDisplay:10.37 W/m2
22:15 46.9 °F 40 °F 30.14 in Calm     77% 0 in WeatherDisplay:10.37 W/m2
22:20 46.8 °F 40 °F 30.14 in Calm     77% 0 in WeatherDisplay:10.37 W/m2
22:25 46.8 °F 40.3 °F 30.14 in Calm     78% 0 in WeatherDisplay:10.37 W/m2
22:30 46.7 °F 40.2 °F 30.14 in Calm     78% 0 in WeatherDisplay:10.37 W/m2
22:35 46.7 °F 40.2 °F 30.13 in Calm     78% 0 in WeatherDisplay:10.37 W/m2
22:40 46.6 °F 40.5 °F 30.13 in Calm     79% 0 in WeatherDisplay:10.37 W/m2
22:45 46.5 °F 40.4 °F 30.13 in Calm     79% 0 in WeatherDisplay:10.37 W/m2
22:50 46.5 °F 40 °F 30.13 in Calm     78% 0 in WeatherDisplay:10.37 W/m2
22:55 46.4 °F 39.9 °F 30.12 in Calm     78% 0 in WeatherDisplay:10.37 W/m2
23:00 46.3 °F 40.1 °F 30.12 in Calm     79% 0 in WeatherDisplay:10.37 W/m2
23:05 46.3 °F 40.1 °F 30.12 in Calm     79% 0 in WeatherDisplay:10.37 W/m2
23:10 46.2 °F 40 °F 30.12 in Calm     79% 0 in WeatherDisplay:10.37 W/m2
23:15 46.2 °F 40 °F 30.12 in Calm     79% 0 in WeatherDisplay:10.37 W/m2
23:20 46.2 °F 40 °F 30.11 in Calm     79% 0 in WeatherDisplay:10.37 W/m2
23:25 46.2 °F 40 °F 30.11 in Calm     79% 0 in WeatherDisplay:10.37 W/m2
23:30 46.3 °F 40.1 °F 30.11 in Calm     79% 0 in WeatherDisplay:10.37 W/m2
23:35 46.3 °F 40.1 °F 30.11 in Calm     79% 0 in WeatherDisplay:10.37 W/m2
Raleigh, North Carolina, USA
Compliments of Weather Underground - 3 mb